createdAt,value
2019-02-19T00:02:03.816Z,95.60
2019-02-19T00:04:34.074Z,95.90
2019-02-19T00:07:04.269Z,96.00
2019-02-19T00:09:34.520Z,95.90
2019-02-19T00:12:04.781Z,95.90
2019-02-19T00:14:34.944Z,95.90
2019-02-19T00:17:05.154Z,96.00
2019-02-19T00:19:35.399Z,96.10
2019-02-19T00:22:06.428Z,96.30
2019-02-19T00:24:36.609Z,96.10
2019-02-19T00:27:06.907Z,96.60
2019-02-19T00:29:37.124Z,96.70
2019-02-19T00:32:07.317Z,96.60
2019-02-19T00:34:37.513Z,96.70
2019-02-19T00:37:07.905Z,96.50
2019-02-19T00:39:38.084Z,96.50
2019-02-19T00:42:08.368Z,96.80
2019-02-19T00:44:38.607Z,97.10
2019-02-19T00:47:08.907Z,97.10
2019-02-19T00:49:39.152Z,97.00
2019-02-19T00:52:09.403Z,97.00
2019-02-19T00:54:39.597Z,97.10
2019-02-19T00:57:09.858Z,97.40
2019-02-19T00:59:40.045Z,97.80
2019-02-19T01:02:10.244Z,97.90
2019-02-19T01:04:40.491Z,97.90
2019-02-19T01:07:10.702Z,97.90
2019-02-19T01:09:40.887Z,98.10
2019-02-19T01:12:11.039Z,97.80
2019-02-19T01:14:41.231Z,97.70
2019-02-19T01:17:11.400Z,97.50
2019-02-19T01:19:41.635Z,97.60
2019-02-19T01:22:11.884Z,97.50
2019-02-19T01:24:42.089Z,97.40
2019-02-19T01:27:12.252Z,97.50
2019-02-19T01:29:42.436Z,97.50
2019-02-19T01:32:12.615Z,97.50
2019-02-19T01:34:42.797Z,97.80
2019-02-19T01:37:12.984Z,98.00
2019-02-19T01:39:43.273Z,97.80
2019-02-19T01:42:13.460Z,98.00
2019-02-19T01:44:43.710Z,98.20
2019-02-19T01:47:13.957Z,98.50
2019-02-19T01:49:44.212Z,98.60
2019-02-19T01:52:14.467Z,98.40
2019-02-19T01:54:44.652Z,98.20
2019-02-19T01:57:14.831Z,98.10
2019-02-19T01:59:45.115Z,98.30
2019-02-19T02:02:15.276Z,98.00
2019-02-19T02:04:45.468Z,98.10
2019-02-19T02:07:15.708Z,98.10
2019-02-19T02:09:45.886Z,98.00
2019-02-19T02:12:16.065Z,97.80
2019-02-19T02:14:46.252Z,97.80
2019-02-19T02:17:16.417Z,97.80
2019-02-19T02:19:46.625Z,97.80
2019-02-19T02:22:16.786Z,97.80
2019-02-19T02:24:47.057Z,97.80
2019-02-19T02:27:17.308Z,97.80
2019-02-19T02:29:47.504Z,97.70
2019-02-19T02:32:17.672Z,97.90
2019-02-19T02:34:47.911Z,98.30
2019-02-19T02:37:18.168Z,98.50
2019-02-19T02:39:48.330Z,98.70
2019-02-19T02:42:18.524Z,98.50
2019-02-19T02:44:48.768Z,98.20
2019-02-19T02:47:18.984Z,98.00
2019-02-19T02:49:49.171Z,97.90
2019-02-19T02:52:19.363Z,97.60
2019-02-19T02:54:49.554Z,97.50
2019-02-19T02:57:19.837Z,97.50
2019-02-19T02:59:50.101Z,97.60
2019-02-19T03:02:20.366Z,97.40
2019-02-19T03:04:50.621Z,97.40
2019-02-19T03:07:45.848Z,97.50
2019-02-19T03:10:16.090Z,98.20
2019-02-19T03:12:46.339Z,98.30
2019-02-19T03:15:16.677Z,98.20
2019-02-19T03:17:46.939Z,98.20
2019-02-19T03:20:17.117Z,98.10
2019-02-19T03:22:47.295Z,98.00
2019-02-19T03:25:17.552Z,98.10
2019-02-19T03:27:47.764Z,98.10
2019-02-19T03:30:17.927Z,98.10
2019-02-19T03:32:48.104Z,98.10
2019-02-19T03:35:18.347Z,98.10
2019-02-19T03:37:48.531Z,98.00
2019-02-19T03:40:18.681Z,97.60
2019-02-19T03:42:48.902Z,97.50
2019-02-19T03:45:19.059Z,97.20
2019-02-19T03:47:49.273Z,96.90
2019-02-19T03:50:19.426Z,96.80
2019-02-19T03:52:49.628Z,96.90
2019-02-19T03:55:19.828Z,96.60
2019-02-19T03:57:53.559Z,96.60
2019-02-19T04:00:28.709Z,96.50
2019-02-19T04:02:58.881Z,96.10
2019-02-19T04:05:29.073Z,96.20
2019-02-19T04:07:59.313Z,96.20
2019-02-19T04:10:29.537Z,96.40
2019-02-19T04:12:59.777Z,96.20
2019-02-19T04:15:30.039Z,96.00
2019-02-19T04:18:00.283Z,96.20
2019-02-19T04:20:30.484Z,96.20
2019-02-19T04:23:00.676Z,96.40
2019-02-19T04:25:30.845Z,96.60
2019-02-19T04:28:01.123Z,96.60
2019-02-19T04:30:31.388Z,96.70
2019-02-19T04:33:01.644Z,96.90
2019-02-19T04:35:31.971Z,97.10
2019-02-19T04:38:02.244Z,97.20
2019-02-19T04:40:32.511Z,97.20
2019-02-19T04:43:02.701Z,97.20
2019-02-19T04:45:32.918Z,97.30
2019-02-19T04:48:03.102Z,97.40
2019-02-19T04:50:33.283Z,97.50
2019-02-19T04:53:03.453Z,97.50
2019-02-19T04:55:33.669Z,97.60
2019-02-19T04:58:03.877Z,97.60
2019-02-19T05:00:34.112Z,97.80
2019-02-19T05:03:04.393Z,97.80
2019-02-19T05:05:34.657Z,97.80
2019-02-19T05:08:04.920Z,97.80
2019-02-19T05:10:35.088Z,97.80
2019-02-19T05:13:05.362Z,97.80
2019-02-19T05:15:35.649Z,97.80
2019-02-19T05:18:05.840Z,97.80
2019-02-19T05:20:36.065Z,97.90
2019-02-19T05:23:07.514Z,98.00
2019-02-19T05:25:37.771Z,97.90
2019-02-19T05:28:07.954Z,97.90
2019-02-19T05:30:38.237Z,97.90
2019-02-19T05:33:08.434Z,97.90
2019-02-19T05:35:38.609Z,97.90
2019-02-19T05:38:08.882Z,98.00
2019-02-19T05:40:39.070Z,98.00
2019-02-19T05:43:09.325Z,98.00
2019-02-19T05:45:39.553Z,97.90
2019-02-19T05:48:09.721Z,97.80
2019-02-19T05:50:39.969Z,97.80
2019-02-19T05:53:10.223Z,97.80
2019-02-19T05:55:40.407Z,97.90
2019-02-19T05:58:10.651Z,97.80
2019-02-19T06:00:40.903Z,97.90
2019-02-19T06:03:11.088Z,98.00
2019-02-19T06:05:41.285Z,98.20
2019-02-19T06:08:11.541Z,98.10
2019-02-19T06:10:41.720Z,98.10
2019-02-19T06:13:11.883Z,98.40
2019-02-19T06:15:42.060Z,98.30
2019-02-19T06:18:12.260Z,98.20
2019-02-19T06:20:42.469Z,98.20
2019-02-19T06:23:12.721Z,98.10
2019-02-19T06:25:43.002Z,98.00
2019-02-19T06:28:13.176Z,97.70
2019-02-19T06:30:43.463Z,97.70
2019-02-19T06:33:13.653Z,97.40
2019-02-19T06:35:43.910Z,97.30
2019-02-19T06:38:14.191Z,97.20
2019-02-19T06:40:44.458Z,97.10
2019-02-19T06:43:14.626Z,97.10
2019-02-19T06:45:44.884Z,97.00
2019-02-19T06:48:15.157Z,96.90
2019-02-19T06:50:45.344Z,96.90
2019-02-19T06:53:15.537Z,97.00
2019-02-19T06:55:45.796Z,96.80
2019-02-19T06:58:16.000Z,98.50
2019-02-19T07:00:46.189Z,98.70
2019-02-19T07:03:24.213Z,97.70
2019-02-19T07:05:54.374Z,96.60
2019-02-19T07:08:24.559Z,96.10
2019-02-19T07:10:54.781Z,95.40
2019-02-19T07:13:25.069Z,95.60
2019-02-19T07:15:55.341Z,95.00
2019-02-19T07:18:25.544Z,95.10
2019-02-19T07:20:55.748Z,95.40
2019-02-19T07:23:25.926Z,95.60
2019-02-19T07:25:56.104Z,95.80
2019-02-19T07:28:26.369Z,95.50
2019-02-19T07:30:56.655Z,95.60
2019-02-19T07:33:26.906Z,95.60
2019-02-19T07:35:57.100Z,95.70
2019-02-19T07:38:27.360Z,95.60
2019-02-19T07:40:57.568Z,95.90
2019-02-19T07:43:27.872Z,95.70
2019-02-19T07:45:58.177Z,95.90
2019-02-19T07:48:28.445Z,95.70
2019-02-19T07:50:58.749Z,95.50
2019-02-19T07:53:28.899Z,95.30
2019-02-19T07:55:59.195Z,95.60
2019-02-19T07:58:29.454Z,95.00
2019-02-19T08:00:59.806Z,94.80
2019-02-19T08:03:30.080Z,94.70
2019-02-19T08:06:00.285Z,94.60
2019-02-19T08:08:30.460Z,94.60
2019-02-19T08:11:00.801Z,94.80
2019-02-19T08:13:31.117Z,94.60
2019-02-19T08:16:01.342Z,94.60
2019-02-19T08:18:31.605Z,94.50
2019-02-19T08:21:02.021Z,94.50
2019-02-19T08:23:32.330Z,94.30
2019-02-19T08:26:02.648Z,94.30
2019-02-19T08:28:33.177Z,94.10
2019-02-19T08:31:03.360Z,93.90
2019-02-19T08:33:33.897Z,93.80
2019-02-19T08:36:04.136Z,93.70
2019-02-19T08:38:34.415Z,93.60
2019-02-19T08:41:04.798Z,93.30
2019-02-19T08:43:34.971Z,93.50
2019-02-19T08:46:05.304Z,93.40
2019-02-19T08:48:35.508Z,93.40
2019-02-19T08:51:05.797Z,93.30
2019-02-19T08:53:36.010Z,93.50
2019-02-19T08:56:06.236Z,93.60
2019-02-19T08:58:36.433Z,93.60
2019-02-19T09:01:06.750Z,93.90
2019-02-19T09:03:37.021Z,93.80
2019-02-19T09:06:08.297Z,93.70
2019-02-19T09:08:38.586Z,93.60
2019-02-19T09:11:10.211Z,93.50
2019-02-19T09:13:40.535Z,93.30
2019-02-19T09:16:10.806Z,93.30
2019-02-19T09:18:41.111Z,93.40
2019-02-19T09:21:11.453Z,93.60
2019-02-19T09:23:42.358Z,93.60
2019-02-19T09:26:12.768Z,93.70
2019-02-19T09:28:42.979Z,93.70
2019-02-19T09:31:13.161Z,93.70
2019-02-19T09:33:43.441Z,93.70
2019-02-19T09:36:13.622Z,93.70
2019-02-19T09:38:43.908Z,93.80
2019-02-19T09:41:14.229Z,93.70
2019-02-19T09:43:44.452Z,93.80
2019-02-19T09:46:14.738Z,93.60
2019-02-19T09:48:44.988Z,93.60
2019-02-19T09:51:15.312Z,93.40
2019-02-19T09:53:45.616Z,93.10
2019-02-19T09:56:15.406Z,93.00
2019-02-19T09:58:45.689Z,92.80
2019-02-19T10:01:15.927Z,92.80
2019-02-19T10:03:45.797Z,92.50
2019-02-19T10:06:16.047Z,92.50
2019-02-19T10:09:00.633Z,92.30
2019-02-19T10:11:32.212Z,92.20
2019-02-19T10:14:03.204Z,92.40
2019-02-19T10:16:41.341Z,92.40
2019-02-19T10:19:06.905Z,92.40
2019-02-19T10:21:37.224Z,92.40
2019-02-19T10:24:07.456Z,92.50
2019-02-19T10:26:37.760Z,92.60
2019-02-19T10:29:07.953Z,92.40
2019-02-19T10:31:38.276Z,92.30
2019-02-19T10:34:08.507Z,92.40
2019-02-19T10:36:38.736Z,92.40
2019-02-19T10:39:11.372Z,92.40
2019-02-19T10:41:41.587Z,92.20
2019-02-19T10:44:11.902Z,92.20
2019-02-19T10:46:42.165Z,92.00
2019-02-19T10:49:12.420Z,91.90
2019-02-19T10:51:42.668Z,91.80
2019-02-19T10:54:12.916Z,91.70
2019-02-19T10:56:43.243Z,91.70
2019-02-19T10:59:13.570Z,91.30
2019-02-19T11:01:43.986Z,91.20
2019-02-19T11:04:14.288Z,91.20
2019-02-19T11:06:44.679Z,91.20
2019-02-19T11:09:15.839Z,90.70
2019-02-19T11:11:46.524Z,90.70
2019-02-19T11:14:18.121Z,90.50
2019-02-19T11:16:48.775Z,90.80
2019-02-19T11:19:22.007Z,91.00
2019-02-19T11:22:13.723Z,91.20
2019-02-19T11:24:55.902Z,91.30
2019-02-19T11:27:37.999Z,91.30
2019-02-19T11:30:20.593Z,91.30
2019-02-19T11:33:03.063Z,91.10
2019-02-19T11:35:44.777Z,91.20
2019-02-19T11:38:26.830Z,91.50
2019-02-19T11:41:08.369Z,91.70
2019-02-19T11:43:50.554Z,91.80
2019-02-19T11:46:32.892Z,91.70
2019-02-19T11:49:15.013Z,91.70
2019-02-19T11:51:57.444Z,91.50
2019-02-19T11:54:39.479Z,91.40
2019-02-19T11:57:21.641Z,91.90
2019-02-19T12:03:02.516Z,92.70
2019-02-19T12:05:44.482Z,93.20
2019-02-19T12:08:26.302Z,93.30
2019-02-19T12:11:08.711Z,93.30
2019-02-19T12:13:50.536Z,93.40
2019-02-19T12:16:32.863Z,93.50
2019-02-19T12:19:14.626Z,93.70
2019-02-19T12:21:56.883Z,93.70
2019-02-19T12:24:39.068Z,93.80
2019-02-19T12:27:22.399Z,93.90
2019-02-19T12:30:04.500Z,94.00
2019-02-19T12:32:46.509Z,93.90
2019-02-19T12:35:28.652Z,94.00
2019-02-19T12:38:10.191Z,94.10
2019-02-19T12:40:51.925Z,94.00
2019-02-19T12:43:33.671Z,93.80
2019-02-19T12:46:15.570Z,93.80
2019-02-19T12:48:57.595Z,93.70
2019-02-19T12:51:39.721Z,93.50
2019-02-19T12:54:21.244Z,93.60
2019-02-19T12:57:05.000Z,93.80
2019-02-19T12:59:46.833Z,94.10
2019-02-19T13:02:28.870Z,94.30
2019-02-19T13:05:10.991Z,94.50
2019-02-19T13:07:52.985Z,94.60
2019-02-19T13:10:35.497Z,94.80
2019-02-19T13:13:17.273Z,94.90
2019-02-19T13:15:59.421Z,95.10
2019-02-19T13:18:41.398Z,95.20
2019-02-19T13:21:26.591Z,95.40
2019-02-19T13:24:08.822Z,95.60
2019-02-19T13:26:51.146Z,95.90
2019-02-19T13:29:32.839Z,95.90
2019-02-19T13:32:15.282Z,96.00
2019-02-19T13:37:40.125Z,96.20
2019-02-19T13:40:21.940Z,96.20
2019-02-19T13:43:04.073Z,96.30
2019-02-19T13:45:46.220Z,96.20
2019-02-19T13:48:27.933Z,96.30
2019-02-19T13:51:09.927Z,96.40
2019-02-19T13:53:59.681Z,96.30
2019-02-19T13:56:43.625Z,96.40
2019-02-19T13:59:27.165Z,96.50
2019-02-19T14:02:09.577Z,96.70
2019-02-19T14:04:51.356Z,96.80
2019-02-19T14:07:34.497Z,96.90
2019-02-19T14:10:16.169Z,96.80
2019-02-19T14:12:59.276Z,97.10
2019-02-19T14:16:00.418Z,97.10
2019-02-19T14:19:01.444Z,97.20
2019-02-19T14:25:04.704Z,97.20
2019-02-19T14:28:05.519Z,97.00
2019-02-19T14:31:56.296Z,96.90
2019-02-19T14:34:30.632Z,96.80
2019-02-19T14:37:31.624Z,96.50
2019-02-19T14:40:35.507Z,96.50
2019-02-19T14:43:31.037Z,97.10
2019-02-19T14:46:33.313Z,96.50
2019-02-19T14:49:34.068Z,96.50
2019-02-19T14:52:45.129Z,96.70
2019-02-19T14:55:48.685Z,96.50
2019-02-19T14:58:53.101Z,96.50
2019-02-19T15:01:35.216Z,96.50
2019-02-19T15:04:35.865Z,96.50
2019-02-19T15:07:36.919Z,96.40
2019-02-19T15:10:38.906Z,96.50
2019-02-19T15:13:39.514Z,96.40
2019-02-19T15:16:41.264Z,96.40
2019-02-19T15:23:15.350Z,96.30
2019-02-19T15:26:18.846Z,96.60
2019-02-19T15:29:19.708Z,96.60
2019-02-19T15:32:23.547Z,96.60
2019-02-19T15:35:27.212Z,96.70
2019-02-19T15:38:19.114Z,96.80
2019-02-19T15:41:20.068Z,97.00
2019-02-19T15:47:58.054Z,96.90
2019-02-19T15:50:59.412Z,97.30
2019-02-19T15:54:00.630Z,97.30
2019-02-19T15:57:03.229Z,97.50
2019-02-19T16:00:03.883Z,97.40
2019-02-19T16:02:49.985Z,97.50
2019-02-19T16:05:50.675Z,97.70
2019-02-19T16:08:51.569Z,97.80
2019-02-19T16:11:52.274Z,97.90
2019-02-19T16:14:59.336Z,98.10
2019-02-19T16:18:03.162Z,98.30
2019-02-19T16:20:51.821Z,98.40
2019-02-19T16:23:52.567Z,98.40
2019-02-19T16:26:55.473Z,98.30
2019-02-19T16:29:54.177Z,98.30
2019-02-19T16:32:48.543Z,98.40
2019-02-19T16:35:42.063Z,98.40
2019-02-19T16:45:38.633Z,98.40
2019-02-19T16:48:39.931Z,98.50
2019-02-19T16:51:43.304Z,98.50
2019-02-19T16:54:47.790Z,98.50
2019-02-19T16:57:48.805Z,98.60
2019-02-19T17:00:36.208Z,98.60
2019-02-19T17:03:37.010Z,98.80
2019-02-19T17:06:47.132Z,98.60
2019-02-19T17:09:48.433Z,98.60
2019-02-19T17:12:36.877Z,98.90
2019-02-19T17:15:37.622Z,98.90
2019-02-19T17:18:39.970Z,98.90
2019-02-19T17:21:40.979Z,98.90
2019-02-19T17:24:42.144Z,99.00
2019-02-19T17:27:43.144Z,98.90
2019-02-19T17:30:43.759Z,99.10
2019-02-19T17:37:10.489Z,98.80
2019-02-19T17:43:34.311Z,99.10
2019-02-19T17:46:34.959Z,99.30
2019-02-19T17:49:35.135Z,99.00
2019-02-19T17:52:28.190Z,99.20
2019-02-19T17:55:29.219Z,99.30
2019-02-19T17:58:29.848Z,99.30
2019-02-19T18:04:23.450Z,99.50
2019-02-19T18:10:23.991Z,99.00
2019-02-19T18:13:27.687Z,99.30
2019-02-19T18:16:24.701Z,99.20
2019-02-19T18:19:09.739Z,99.50
2019-02-19T18:21:52.127Z,99.60
2019-02-19T18:24:34.244Z,99.70
2019-02-19T18:27:16.197Z,99.70
2019-02-19T18:29:58.737Z,99.70
2019-02-19T18:32:40.279Z,99.90
2019-02-19T18:35:22.119Z,99.80
2019-02-19T18:38:03.966Z,99.80
2019-02-19T18:40:46.101Z,99.80
2019-02-19T18:43:29.870Z,99.80
2019-02-19T18:46:11.922Z,99.90
2019-02-19T18:48:56.292Z,99.90
2019-02-19T18:51:38.392Z,99.90
2019-02-19T18:54:22.470Z,99.90
2019-02-19T18:57:04.156Z,99.90
2019-02-19T18:59:50.537Z,99.90
2019-02-19T19:02:34.224Z,99.90
2019-02-19T19:05:17.664Z,99.90
2019-02-19T19:08:01.234Z,99.90
2019-02-19T19:10:43.224Z,99.90
2019-02-19T19:13:24.775Z,99.90
2019-02-19T19:16:07.307Z,99.90
2019-02-19T19:18:49.699Z,99.90
2019-02-19T19:21:33.521Z,99.90
2019-02-19T19:24:16.054Z,99.90
2019-02-19T19:26:57.800Z,99.90
2019-02-19T19:29:39.674Z,99.90
2019-02-19T19:32:21.598Z,99.90
2019-02-19T19:35:03.919Z,99.90
2019-02-19T19:37:45.812Z,99.90
2019-02-19T19:40:28.183Z,99.90
2019-02-19T19:43:10.496Z,99.90
2019-02-19T19:45:52.987Z,99.90
2019-02-19T19:48:34.858Z,99.90
2019-02-19T19:51:17.449Z,99.90
2019-02-19T19:53:59.445Z,99.90
2019-02-19T19:56:41.420Z,99.90
2019-02-19T19:59:23.429Z,99.90
2019-02-19T20:02:05.901Z,99.90
2019-02-19T20:04:48.133Z,99.90
2019-02-19T20:07:29.768Z,99.90
2019-02-19T20:10:12.141Z,99.90
2019-02-19T20:12:54.313Z,99.90
2019-02-19T20:15:36.459Z,99.90
2019-02-19T20:18:18.495Z,99.90
2019-02-19T20:21:00.984Z,99.90
2019-02-19T20:26:43.063Z,99.90
2019-02-19T20:29:24.670Z,99.90
2019-02-19T20:32:06.761Z,99.90
2019-02-19T20:34:49.077Z,99.90
2019-02-19T20:37:31.359Z,99.90
2019-02-19T20:40:13.151Z,99.90
2019-02-19T20:42:55.429Z,99.90
2019-02-19T20:45:37.572Z,99.90
2019-02-19T20:48:19.481Z,99.90
2019-02-19T20:51:01.623Z,99.90
2019-02-19T20:53:43.654Z,99.90
2019-02-19T20:56:25.723Z,99.90
2019-02-19T20:59:07.653Z,99.90
2019-02-19T21:01:49.581Z,99.90
2019-02-19T21:04:31.828Z,99.90
2019-02-19T21:07:14.167Z,99.90
2019-02-19T21:09:55.805Z,99.90
2019-02-19T21:12:37.903Z,99.90
2019-02-19T21:15:20.282Z,99.90
2019-02-19T21:18:01.897Z,99.90
2019-02-19T21:20:43.819Z,99.90
2019-02-19T21:23:14.231Z,99.90
2019-02-19T21:26:03.615Z,99.90
2019-02-19T21:28:52.949Z,99.90
2019-02-19T21:31:42.538Z,99.90
2019-02-19T21:34:31.974Z,99.90
2019-02-19T21:37:21.319Z,99.90
2019-02-19T21:40:10.871Z,99.90
2019-02-19T21:43:00.320Z,99.90
2019-02-19T21:45:49.749Z,99.90
2019-02-19T21:48:39.064Z,99.90
2019-02-19T21:51:28.529Z,99.90
2019-02-19T21:54:18.013Z,99.90
2019-02-19T21:57:07.523Z,99.90
2019-02-19T21:59:56.912Z,99.90
2019-02-19T22:02:46.301Z,99.90
2019-02-19T22:05:35.685Z,99.90
2019-02-19T22:08:25.098Z,99.90
2019-02-19T22:11:14.508Z,99.90
2019-02-19T22:14:03.942Z,99.90
2019-02-19T22:19:42.008Z,99.90
2019-02-19T22:22:25.893Z,99.90
2019-02-19T22:25:07.474Z,99.90
2019-02-19T22:27:49.446Z,99.90
2019-02-19T22:30:31.185Z,99.90
2019-02-19T22:33:13.197Z,99.90
2019-02-19T22:35:54.910Z,99.90
2019-02-19T22:38:36.884Z,99.90
2019-02-19T22:41:18.984Z,99.90
2019-02-19T22:44:01.225Z,99.90
2019-02-19T22:46:43.073Z,99.90
2019-02-19T22:49:25.342Z,99.90
2019-02-19T22:52:12.571Z,99.90
2019-02-19T22:58:25.393Z,99.90
2019-02-19T23:04:24.131Z,99.90
2019-02-19T23:07:06.161Z,99.90
2019-02-19T23:09:48.223Z,99.90
2019-02-19T23:12:30.073Z,99.90
2019-02-19T23:15:12.176Z,99.90
2019-02-19T23:17:53.991Z,99.90
2019-02-19T23:20:36.033Z,99.90
2019-02-19T23:23:18.293Z,99.90
2019-02-19T23:26:00.272Z,99.90
2019-02-19T23:28:42.141Z,99.90
2019-02-19T23:31:24.161Z,99.90
2019-02-19T23:34:06.646Z,99.90
2019-02-19T23:36:54.623Z,99.90
2019-02-19T23:39:43.461Z,99.90
2019-02-19T23:42:20.947Z,99.90
2019-02-19T23:45:02.917Z,99.90
2019-02-19T23:47:44.937Z,99.90
2019-02-19T23:50:27.098Z,99.90
2019-02-19T23:53:10.766Z,99.90
2019-02-19T23:55:54.746Z,99.90
2019-02-19T23:58:37.138Z,99.90
